createdAt,value
2018-11-26T00:00:46.241Z,57.07
2018-11-26T00:03:14.791Z,61.47
2018-11-26T00:05:43.450Z,57.30
2018-11-26T00:08:12.798Z,59.80
2018-11-26T00:10:52.366Z,59.67
2018-11-26T00:13:21.887Z,59.27
2018-11-26T00:15:50.480Z,66.10
2018-11-26T00:18:19.252Z,67.63
2018-11-26T00:20:47.890Z,67.67
2018-11-26T00:23:16.561Z,66.57
2018-11-26T00:25:45.235Z,64.30
2018-11-26T00:28:13.738Z,56.80
2018-11-26T00:30:42.357Z,66.97
2018-11-26T00:33:10.923Z,64.67
2018-11-26T00:35:39.445Z,65.00
2018-11-26T00:38:08.024Z,65.67
2018-11-26T00:40:36.557Z,61.60
2018-11-26T00:43:05.110Z,67.57
2018-11-26T00:45:33.671Z,64.07
2018-11-26T00:48:02.455Z,61.40
2018-11-26T00:50:30.990Z,58.37
2018-11-26T00:52:59.606Z,66.83
2018-11-26T00:55:28.307Z,66.60
2018-11-26T00:57:56.963Z,59.70
2018-11-26T01:00:25.647Z,61.97
2018-11-26T01:02:54.265Z,60.27
2018-11-26T01:05:40.121Z,55.57
2018-11-26T01:08:08.946Z,54.00
2018-11-26T01:10:37.591Z,52.70
2018-11-26T01:13:06.919Z,52.97
2018-11-26T01:15:35.528Z,48.07
2018-11-26T01:18:04.220Z,50.77
2018-11-26T01:20:32.778Z,50.17
2018-11-26T01:23:01.347Z,55.17
2018-11-26T01:25:29.932Z,46.30
2018-11-26T01:27:58.478Z,53.17
2018-11-26T01:30:27.379Z,58.47
2018-11-26T01:32:55.885Z,51.60
2018-11-26T01:35:24.430Z,52.90
2018-11-26T01:37:52.949Z,54.53
2018-11-26T01:40:29.820Z,59.00
2018-11-26T01:42:58.473Z,51.97
2018-11-26T01:45:27.234Z,57.43
2018-11-26T01:47:55.948Z,51.97
2018-11-26T01:50:24.493Z,48.93
2018-11-26T01:52:53.085Z,49.90
2018-11-26T01:55:21.634Z,48.63
2018-11-26T01:57:50.343Z,48.10
2018-11-26T02:00:22.259Z,52.10
2018-11-26T02:02:50.833Z,45.37
2018-11-26T02:05:19.418Z,50.57
2018-11-26T02:07:48.022Z,47.07
2018-11-26T02:10:17.553Z,46.13
2018-11-26T02:12:46.175Z,44.80
2018-11-26T02:15:38.333Z,46.27
2018-11-26T02:18:07.711Z,40.80
2018-11-26T02:20:36.265Z,37.97
2018-11-26T02:23:04.885Z,43.97
2018-11-26T02:25:33.712Z,43.53
2018-11-26T02:28:02.329Z,44.77
2018-11-26T02:30:31.122Z,40.93
2018-11-26T02:32:59.647Z,45.80
2018-11-26T02:35:28.171Z,40.53
2018-11-26T02:37:56.783Z,42.93
2018-11-26T02:40:29.101Z,44.97
2018-11-26T02:42:57.621Z,41.93
2018-11-26T02:45:26.327Z,39.07
2018-11-26T02:47:54.908Z,45.20
2018-11-26T02:50:23.497Z,40.83
2018-11-26T02:52:52.046Z,45.67
2018-11-26T02:55:20.602Z,44.27
2018-11-26T02:57:49.168Z,47.07
2018-11-26T03:00:17.838Z,44.57
2018-11-26T03:02:46.661Z,41.57
2018-11-26T03:05:30.866Z,41.97
2018-11-26T03:07:59.428Z,43.27
2018-11-26T03:10:27.942Z,47.83
2018-11-26T03:12:56.540Z,46.33
2018-11-26T03:15:25.108Z,41.57
2018-11-26T03:17:53.726Z,44.07
2018-11-26T03:20:22.248Z,43.47
2018-11-26T03:22:50.770Z,42.23
2018-11-26T03:25:19.326Z,46.80
2018-11-26T03:27:47.860Z,43.43
2018-11-26T03:30:18.385Z,39.70
2018-11-26T03:32:46.962Z,46.23
2018-11-26T03:35:15.494Z,45.73
2018-11-26T03:37:44.010Z,41.43
2018-11-26T03:40:13.428Z,42.03
2018-11-26T03:42:42.242Z,43.07
2018-11-26T03:45:13.117Z,44.03
2018-11-26T03:47:41.663Z,44.47
2018-11-26T03:50:10.980Z,47.50
2018-11-26T03:52:39.546Z,47.67
2018-11-26T03:55:09.496Z,44.13
2018-11-26T03:57:38.026Z,46.27
2018-11-26T04:00:12.223Z,42.43
2018-11-26T04:02:40.747Z,48.20
2018-11-26T04:05:10.080Z,45.03
2018-11-26T04:07:38.653Z,43.13
2018-11-26T04:10:09.655Z,44.43
2018-11-26T04:12:38.266Z,44.17
2018-11-26T04:15:09.558Z,40.93
2018-11-26T04:17:38.106Z,44.60
2018-11-26T04:20:07.540Z,43.23
2018-11-26T04:22:36.053Z,42.13
2018-11-26T04:25:04.886Z,41.47
2018-11-26T04:27:33.413Z,39.40
2018-11-26T04:30:01.947Z,44.63
2018-11-26T04:32:30.495Z,45.10
2018-11-26T04:34:59.202Z,44.87
2018-11-26T04:37:27.741Z,46.20
2018-11-26T04:39:56.264Z,44.00
2018-11-26T04:42:24.764Z,46.63
2018-11-26T04:44:53.301Z,47.13
2018-11-26T04:47:21.773Z,44.30
2018-11-26T04:49:50.320Z,45.20
2018-11-26T04:52:18.823Z,40.57
2018-11-26T04:54:47.422Z,42.13
2018-11-26T04:57:16.095Z,41.30
2018-11-26T04:59:44.660Z,49.67
2018-11-26T05:02:13.211Z,41.93
2018-11-26T05:04:41.811Z,39.03
2018-11-26T05:07:10.311Z,42.43
2018-11-26T05:09:38.871Z,47.07
2018-11-26T05:12:07.368Z,44.23
2018-11-26T05:14:35.892Z,40.53
2018-11-26T05:17:04.413Z,41.20
2018-11-26T05:19:33.951Z,40.33
2018-11-26T05:22:02.508Z,38.67
2018-11-26T05:24:31.049Z,40.83
2018-11-26T05:26:59.598Z,38.07
2018-11-26T05:29:28.131Z,37.13
2018-11-26T05:31:56.700Z,39.97
2018-11-26T05:34:25.276Z,36.13
2018-11-26T05:36:53.828Z,36.17
2018-11-26T05:39:22.328Z,34.47
2018-11-26T05:41:51.056Z,33.77
2018-11-26T05:44:19.556Z,34.93
2018-11-26T05:46:48.149Z,33.03
2018-11-26T05:49:16.700Z,39.60
2018-11-26T05:51:45.316Z,37.57
2018-11-26T05:54:13.869Z,35.50
2018-11-26T05:56:42.433Z,39.03
2018-11-26T05:59:10.931Z,35.57
2018-11-26T06:01:39.531Z,40.90
2018-11-26T06:04:08.188Z,38.37
2018-11-26T06:06:36.711Z,39.80
2018-11-26T06:09:08.764Z,42.10
2018-11-26T06:11:38.248Z,39.00
2018-11-26T06:14:07.128Z,37.83
2018-11-26T06:16:36.791Z,36.87
2018-11-26T06:19:05.788Z,33.13
2018-11-26T06:21:34.273Z,33.50
2018-11-26T06:24:02.817Z,37.63
2018-11-26T06:26:31.357Z,35.70
2018-11-26T06:28:59.897Z,32.27
2018-11-26T06:31:28.407Z,31.63
2018-11-26T06:33:56.929Z,29.57
2018-11-26T06:36:25.530Z,29.57
2018-11-26T06:38:54.017Z,32.37
2018-11-26T06:41:22.540Z,28.63
2018-11-26T06:43:51.143Z,31.97
2018-11-26T06:46:19.835Z,31.77
2018-11-26T06:48:48.319Z,35.40
2018-11-26T06:51:16.835Z,32.67
2018-11-26T06:53:45.370Z,30.17
2018-11-26T06:56:13.885Z,28.27
2018-11-26T06:58:42.364Z,29.67
2018-11-26T07:01:10.943Z,28.67
2018-11-26T07:03:39.501Z,28.00
2018-11-26T07:06:08.132Z,32.67
2018-11-26T07:08:37.483Z,29.27
2018-11-26T07:11:06.201Z,24.93
2018-11-26T07:13:34.742Z,27.73
2018-11-26T07:16:03.419Z,31.77
2018-11-26T07:18:31.989Z,28.27
2018-11-26T07:21:00.661Z,28.17
2018-11-26T07:23:29.323Z,26.43
2018-11-26T07:25:57.905Z,28.50
2018-11-26T07:28:26.497Z,28.70
2018-11-26T07:30:58.276Z,28.10
2018-11-26T07:33:27.697Z,27.93
2018-11-26T07:35:56.320Z,28.63
2018-11-26T07:38:25.008Z,35.07
2018-11-26T07:40:53.572Z,39.23
2018-11-26T07:43:22.102Z,34.97
2018-11-26T07:45:50.730Z,36.07
2018-11-26T07:48:19.296Z,33.23
2018-11-26T07:50:47.827Z,32.63
2018-11-26T07:53:16.439Z,36.80
2018-11-26T07:55:45.095Z,35.07
2018-11-26T07:58:13.657Z,35.63
2018-11-26T08:00:42.202Z,39.17
2018-11-26T08:03:10.767Z,35.07
2018-11-26T08:05:39.330Z,39.83
2018-11-26T08:08:07.908Z,40.97
2018-11-26T08:10:36.526Z,39.77
2018-11-26T08:13:05.554Z,42.57
2018-11-26T08:15:34.371Z,39.47
2018-11-26T08:18:02.943Z,31.20
2018-11-26T08:20:31.526Z,31.87
2018-11-26T08:23:00.114Z,35.80
2018-11-26T08:25:28.731Z,40.23
2018-11-26T08:27:57.335Z,39.20
2018-11-26T08:30:27.066Z,35.93
2018-11-26T08:32:58.666Z,32.33
2018-11-26T08:35:27.367Z,36.83
2018-11-26T08:38:01.222Z,37.70
2018-11-26T08:40:34.988Z,37.13
2018-11-26T08:43:09.562Z,35.03
2018-11-26T08:45:42.327Z,34.57
2018-11-26T08:48:15.906Z,34.03
2018-11-26T08:50:44.823Z,34.90
2018-11-26T08:53:13.462Z,34.27
2018-11-26T08:55:49.872Z,36.47
2018-11-26T08:58:18.523Z,38.17
2018-11-26T09:00:47.222Z,38.20
2018-11-26T09:03:21.922Z,38.97
2018-11-26T09:05:55.563Z,39.13
2018-11-26T09:08:24.395Z,36.93
2018-11-26T09:10:53.159Z,35.53
2018-11-26T09:13:21.795Z,35.23
2018-11-26T09:15:50.474Z,32.90
2018-11-26T09:18:19.228Z,35.73
2018-11-26T09:20:48.084Z,36.77
2018-11-26T09:23:16.814Z,39.17
2018-11-26T09:25:45.520Z,39.33
2018-11-26T09:28:14.212Z,42.00
2018-11-26T09:30:43.048Z,43.33
2018-11-26T09:33:11.821Z,41.70
2018-11-26T09:35:40.645Z,37.63
2018-11-26T09:38:09.638Z,35.30
2018-11-26T09:40:38.298Z,38.10
2018-11-26T09:43:07.692Z,39.47
2018-11-26T09:45:40.500Z,37.30
2018-11-26T09:48:05.029Z,35.37
2018-11-26T09:50:33.659Z,38.90
2018-11-26T09:53:02.306Z,37.57
2018-11-26T09:55:31.020Z,40.53
2018-11-26T09:57:59.729Z,38.60
2018-11-26T10:00:28.651Z,40.93
2018-11-26T10:02:57.344Z,38.17
2018-11-26T10:05:26.326Z,41.87
2018-11-26T10:07:55.148Z,44.00
2018-11-26T10:10:23.819Z,40.53
2018-11-26T10:12:52.621Z,42.83
2018-11-26T10:15:22.391Z,41.57
2018-11-26T10:17:51.208Z,44.80
2018-11-26T10:20:20.032Z,48.43
2018-11-26T10:22:49.375Z,44.03
2018-11-26T10:25:20.920Z,47.63
2018-11-26T10:27:49.609Z,50.63
2018-11-26T10:30:20.768Z,49.20
2018-11-26T10:32:50.297Z,44.53
2018-11-26T10:35:19.617Z,41.60
2018-11-26T10:37:48.406Z,49.67
2018-11-26T10:40:26.833Z,43.73
2018-11-26T10:42:55.759Z,45.30
2018-11-26T10:45:25.032Z,41.83
2018-11-26T10:47:53.835Z,42.93
2018-11-26T10:50:24.301Z,45.03
2018-11-26T10:52:54.226Z,46.23
2018-11-26T10:55:24.219Z,43.37
2018-11-26T10:57:53.006Z,44.93
2018-11-26T11:00:26.911Z,44.83
2018-11-26T11:02:55.869Z,45.37
2018-11-26T11:05:24.279Z,43.57
2018-11-26T11:07:53.040Z,46.00
2018-11-26T11:10:25.759Z,47.10
2018-11-26T11:12:54.429Z,43.53
2018-11-26T11:15:23.122Z,44.57
2018-11-26T11:17:51.668Z,43.43
2018-11-26T11:20:21.518Z,41.93
2018-11-26T11:22:50.108Z,45.37
2018-11-26T11:25:19.304Z,43.73
2018-11-26T11:27:48.033Z,44.87
2018-11-26T11:30:22.685Z,47.47
2018-11-26T11:32:51.326Z,45.40
2018-11-26T11:35:20.030Z,46.60
2018-11-26T11:37:49.522Z,43.17
2018-11-26T11:40:20.199Z,37.80
2018-11-26T11:42:49.002Z,40.23
2018-11-26T11:45:17.720Z,36.57
2018-11-26T11:47:46.370Z,39.27
2018-11-26T11:50:16.181Z,40.60
2018-11-26T11:52:45.159Z,43.73
2018-11-26T11:55:18.711Z,42.80
2018-11-26T11:57:47.445Z,41.90
2018-11-26T12:00:25.607Z,42.80
2018-11-26T12:02:55.632Z,43.50
2018-11-26T12:05:24.314Z,40.90
2018-11-26T12:07:53.023Z,41.20
2018-11-26T12:10:21.858Z,46.30
2018-11-26T12:12:50.608Z,47.23
2018-11-26T12:15:19.362Z,47.87
2018-11-26T12:17:48.903Z,43.60
2018-11-26T12:20:17.647Z,48.27
2018-11-26T12:22:46.606Z,49.87
2018-11-26T12:25:17.468Z,48.27
2018-11-26T12:27:46.158Z,47.07
2018-11-26T12:30:22.843Z,50.00
2018-11-26T12:32:51.809Z,50.97
2018-11-26T12:35:20.456Z,52.80
2018-11-26T12:37:49.329Z,53.20
2018-11-26T12:40:22.208Z,57.03
2018-11-26T12:42:52.206Z,55.53
2018-11-26T12:45:24.161Z,53.73
2018-11-26T12:47:52.902Z,52.80
2018-11-26T12:50:21.660Z,53.57
2018-11-26T12:52:50.392Z,57.13
2018-11-26T12:55:20.084Z,53.20
2018-11-26T12:57:50.204Z,55.23
2018-11-26T13:00:26.629Z,54.77
2018-11-26T13:02:57.219Z,50.83
2018-11-26T13:05:26.008Z,51.50
2018-11-26T13:07:54.763Z,53.17
2018-11-26T13:10:24.080Z,56.63
2018-11-26T13:12:53.395Z,59.63
2018-11-26T13:15:23.468Z,55.40
2018-11-26T13:17:53.399Z,56.90
2018-11-26T13:20:25.799Z,58.37
2018-11-26T13:22:55.020Z,64.07
2018-11-26T13:25:25.815Z,58.10
2018-11-26T13:27:56.326Z,58.37
2018-11-26T13:30:27.330Z,57.70
2018-11-26T13:32:57.238Z,52.67
2018-11-26T13:35:26.242Z,49.27
2018-11-26T13:37:54.994Z,43.73
2018-11-26T13:40:23.685Z,43.27
2018-11-26T13:42:52.667Z,41.13
2018-11-26T13:45:24.337Z,41.63
2018-11-26T13:47:53.080Z,35.30
2018-11-26T13:50:23.105Z,34.60
2018-11-26T13:52:51.864Z,32.97
2018-11-26T13:55:20.653Z,35.53
2018-11-26T13:57:49.436Z,32.73
2018-11-26T14:00:18.216Z,32.80
2018-11-26T14:02:46.906Z,30.73
2018-11-26T14:05:16.677Z,29.93
2018-11-26T14:07:46.110Z,31.63
2018-11-26T14:10:18.927Z,32.40
2018-11-26T14:12:49.334Z,33.37
2018-11-26T14:15:18.066Z,30.20
2018-11-26T14:17:47.750Z,32.37
2018-11-26T14:20:16.993Z,34.73
2018-11-26T14:22:45.808Z,32.03
2018-11-26T14:25:15.557Z,33.50
2018-11-26T14:27:45.008Z,32.47
2018-11-26T14:30:17.687Z,33.80
2018-11-26T14:32:46.529Z,32.77
2018-11-26T14:35:15.365Z,32.00
2018-11-26T14:37:44.469Z,33.37
2018-11-26T14:40:15.859Z,30.87
2018-11-26T14:42:44.533Z,35.50
2018-11-26T14:45:13.885Z,33.60
2018-11-26T14:47:44.068Z,34.93
2018-11-26T14:50:20.962Z,34.73
2018-11-26T14:55:42.290Z,32.77
2018-11-26T14:58:10.885Z,36.60
2018-11-26T15:00:39.491Z,37.80
2018-11-26T15:03:08.479Z,39.00
2018-11-26T15:05:37.047Z,35.43
2018-11-26T15:08:05.741Z,36.87
2018-11-26T15:10:34.520Z,34.57
2018-11-26T15:13:03.210Z,36.67
2018-11-26T15:15:31.846Z,36.33
2018-11-26T15:18:00.410Z,36.87
2018-11-26T15:20:29.988Z,36.97
2018-11-26T15:22:59.639Z,37.20
2018-11-26T15:25:30.183Z,38.07
2018-11-26T15:28:00.098Z,39.83
2018-11-26T15:30:28.769Z,40.37
2018-11-26T15:32:57.584Z,37.43
2018-11-26T15:35:26.198Z,39.90
2018-11-26T15:37:55.061Z,37.27
2018-11-26T15:40:23.598Z,36.53
2018-11-26T15:42:52.162Z,35.33
2018-11-26T15:45:26.286Z,37.00
2018-11-26T15:47:56.151Z,38.83
2018-11-26T15:50:24.656Z,33.47
2018-11-26T15:52:53.219Z,33.47
2018-11-26T15:55:22.132Z,33.47
2018-11-26T15:57:51.164Z,31.23
2018-11-26T16:00:21.633Z,38.90
2018-11-26T16:02:50.407Z,36.43
2018-11-26T16:05:27.832Z,38.87
2018-11-26T16:07:59.711Z,39.47
2018-11-26T16:10:28.187Z,39.10
2018-11-26T16:12:58.054Z,36.33
2018-11-26T16:15:28.837Z,34.80
2018-11-26T16:17:58.848Z,31.67
2018-11-26T16:20:27.909Z,34.07
2018-11-26T16:22:57.434Z,32.50
2018-11-26T16:25:26.116Z,38.23
2018-11-26T16:27:54.882Z,40.57
2018-11-26T16:30:23.402Z,37.27
2018-11-26T16:32:58.161Z,44.57
2018-11-26T16:35:30.848Z,51.10
2018-11-26T16:37:59.484Z,50.40
2018-11-26T16:40:27.965Z,48.03
2018-11-26T16:42:56.505Z,48.33
2018-11-26T16:45:26.055Z,46.63
2018-11-26T16:47:55.347Z,44.93
2018-11-26T16:50:25.150Z,47.73
2018-11-26T16:52:53.689Z,51.37
2018-11-26T16:55:22.254Z,47.43
2018-11-26T16:57:51.206Z,44.50
2018-11-26T17:00:24.462Z,42.80
2018-11-26T17:02:55.127Z,50.53
2018-11-26T17:05:26.844Z,43.23
2018-11-26T17:07:55.429Z,45.47
2018-11-26T17:10:23.977Z,48.57
2018-11-26T17:12:52.482Z,44.73
2018-11-26T17:15:20.993Z,49.23
2018-11-26T17:17:49.563Z,48.40
2018-11-26T17:20:18.352Z,46.97
2018-11-26T17:22:46.935Z,48.90
2018-11-26T17:25:16.393Z,57.67
2018-11-26T17:27:45.294Z,51.07
2018-11-26T17:30:18.993Z,52.30
2018-11-26T17:32:48.761Z,50.70
2018-11-26T17:35:17.641Z,51.20
2018-11-26T17:37:46.194Z,46.30
2018-11-26T17:40:17.731Z,43.73
2018-11-26T17:42:46.260Z,47.80
2018-11-26T17:45:15.359Z,53.03
2018-11-26T17:47:45.207Z,55.80
2018-11-26T17:50:16.142Z,48.37
2018-11-26T17:52:44.677Z,49.97
2018-11-26T17:55:13.315Z,45.20
2018-11-26T17:57:41.802Z,42.17
2018-11-26T18:00:20.084Z,52.97
2018-11-26T18:02:48.608Z,54.47
2018-11-26T18:05:24.997Z,44.00
2018-11-26T18:08:01.030Z,52.03
2018-11-26T18:10:29.605Z,41.77
2018-11-26T18:12:58.142Z,49.70
2018-11-26T18:15:26.777Z,51.07
2018-11-26T18:17:55.246Z,43.73
2018-11-26T18:20:23.798Z,49.97
2018-11-26T18:22:53.369Z,42.27
2018-11-26T18:25:22.689Z,56.20
2018-11-26T18:27:55.860Z,48.90
2018-11-26T18:30:31.245Z,47.40
2018-11-26T18:32:59.837Z,43.87
2018-11-26T18:35:28.302Z,38.07
2018-11-26T18:37:56.866Z,55.73
2018-11-26T18:40:25.484Z,44.77
2018-11-26T18:42:54.044Z,45.77
2018-11-26T18:45:52.823Z,52.27
2018-11-26T18:48:22.445Z,46.23
2018-11-26T18:50:49.934Z,55.43
2018-11-26T18:53:18.464Z,48.37
2018-11-26T18:55:47.178Z,45.73
2018-11-26T18:58:15.784Z,48.83
2018-11-26T19:01:01.216Z,44.20
2018-11-26T19:03:29.716Z,40.33
2018-11-26T19:05:58.545Z,53.90
2018-11-26T19:08:27.321Z,48.43
2018-11-26T19:10:58.269Z,39.33
2018-11-26T19:13:36.584Z,40.27
2018-11-26T19:16:16.353Z,44.77
2018-11-26T19:18:44.911Z,40.40
2018-11-26T19:21:13.438Z,38.20
2018-11-26T19:23:42.007Z,45.50
2018-11-26T19:26:10.561Z,40.33
2018-11-26T19:28:39.091Z,53.73
2018-11-26T19:31:07.899Z,44.07
2018-11-26T19:33:36.459Z,40.47
2018-11-26T19:36:05.101Z,41.40
2018-11-26T19:38:33.596Z,40.37
2018-11-26T19:41:02.119Z,44.80
2018-11-26T19:43:30.621Z,49.60
2018-11-26T19:45:59.181Z,47.17
2018-11-26T19:48:27.724Z,48.00
2018-11-26T19:50:56.264Z,47.30
2018-11-26T19:53:24.816Z,57.57
2018-11-26T19:55:53.333Z,42.73
2018-11-26T19:58:21.933Z,56.83
2018-11-26T20:00:50.447Z,39.83
2018-11-26T20:03:24.668Z,65.13
2018-11-26T20:06:02.014Z,60.73
2018-11-26T20:08:31.617Z,67.13
2018-11-26T20:11:00.168Z,63.70
2018-11-26T20:13:28.942Z,76.63
2018-11-26T20:15:57.579Z,70.70
2018-11-26T20:18:28.572Z,60.07
2018-11-26T20:20:57.227Z,59.73
2018-11-26T20:23:25.947Z,58.67
2018-11-26T20:25:54.489Z,50.07
2018-11-26T20:28:23.024Z,56.90
2018-11-26T20:30:51.690Z,44.50
2018-11-26T20:33:20.259Z,62.73
2018-11-26T20:35:48.807Z,65.67
2018-11-26T20:38:17.358Z,55.43
2018-11-26T20:40:45.907Z,49.50
2018-11-26T20:43:15.072Z,53.23
2018-11-26T20:45:45.429Z,57.83
2018-11-26T20:48:13.994Z,57.23
2018-11-26T20:50:44.627Z,56.00
2018-11-26T20:53:13.190Z,49.63
2018-11-26T20:55:41.803Z,57.00
2018-11-26T20:58:10.367Z,66.03
2018-11-26T21:00:39.987Z,52.53
2018-11-26T21:03:09.887Z,64.73
2018-11-26T21:05:38.915Z,55.10
2018-11-26T21:08:07.531Z,51.73
2018-11-26T21:10:36.278Z,56.73
2018-11-26T21:13:04.857Z,48.40
2018-11-26T21:15:33.430Z,59.63
2018-11-26T21:18:04.757Z,53.33
2018-11-26T21:20:36.053Z,63.07
2018-11-26T21:23:06.806Z,47.90
2018-11-26T21:25:35.346Z,52.57
2018-11-26T21:28:03.899Z,54.40
2018-11-26T21:30:32.613Z,54.30
2018-11-26T21:33:01.172Z,46.53
2018-11-26T21:35:29.726Z,50.07
2018-11-26T21:37:58.249Z,56.67
2018-11-26T21:40:26.789Z,47.30
2018-11-26T21:42:55.366Z,61.53
2018-11-26T21:46:27.431Z,44.90
2018-11-26T21:48:55.980Z,56.33
2018-11-26T21:51:24.560Z,73.47
2018-11-26T21:53:53.060Z,70.70
2018-11-26T21:56:21.588Z,57.20
2018-11-26T21:58:50.062Z,55.70
2018-11-26T22:01:18.606Z,62.37
2018-11-26T22:03:47.082Z,68.97
2018-11-26T22:06:15.617Z,76.40
2018-11-26T22:08:44.142Z,64.70
2018-11-26T22:11:12.602Z,63.40
2018-11-26T22:13:41.121Z,52.40
2018-11-26T22:16:09.692Z,60.17
2018-11-26T22:18:38.202Z,60.63
2018-11-26T22:21:06.801Z,54.57
2018-11-26T22:23:35.443Z,57.80
2018-11-26T22:26:03.973Z,67.27
2018-11-26T22:28:32.454Z,57.83
2018-11-26T22:31:00.975Z,57.63
2018-11-26T22:33:30.353Z,52.43
2018-11-26T22:35:58.924Z,51.20
2018-11-26T22:38:27.409Z,54.97
2018-11-26T22:40:55.935Z,69.40
2018-11-26T22:43:24.467Z,56.57
2018-11-26T22:45:53.057Z,55.00
2018-11-26T22:48:52.123Z,59.93
2018-11-26T22:51:20.841Z,52.20
2018-11-26T22:53:49.364Z,48.63
2018-11-26T22:56:17.903Z,70.90
2018-11-26T22:58:46.408Z,74.10
2018-11-26T23:01:14.975Z,68.63
2018-11-26T23:03:43.634Z,57.10
2018-11-26T23:06:12.916Z,57.03
2018-11-26T23:08:41.498Z,54.57
2018-11-26T23:11:10.337Z,55.27
2018-11-26T23:13:38.854Z,60.97
2018-11-26T23:16:07.990Z,46.07
2018-11-26T23:18:39.620Z,47.87
2018-11-26T23:21:08.116Z,63.80
2018-11-26T23:23:36.589Z,66.63
2018-11-26T23:26:05.204Z,56.80
2018-11-26T23:28:33.736Z,52.07
2018-11-26T23:31:02.254Z,47.23
2018-11-26T23:33:30.724Z,79.20
2018-11-26T23:35:59.216Z,67.07
2018-11-26T23:38:27.767Z,54.57
2018-11-26T23:40:56.340Z,65.28
2018-11-26T23:43:24.928Z,59.87
2018-11-26T23:45:53.490Z,69.23
2018-11-26T23:48:22.019Z,66.50
2018-11-26T23:50:50.585Z,73.87
2018-11-26T23:53:19.060Z,72.50
2018-11-26T23:55:47.901Z,79.27
2018-11-26T23:58:16.412Z,89.57
